sensor_id;sensor_type;location;lat;lon;timestamp;P1;durP1;ratioP1;P2;durP2;ratioP2
48987;SDS011;34799;51.440;-2.534;2023-02-18T00:01:37;8.35;;;0.38;;
48987;SDS011;34799;51.440;-2.534;2023-02-18T00:04:04;6.93;;;0.40;;
48987;SDS011;34799;51.440;-2.534;2023-02-18T00:06:32;6.28;;;0.30;;
48987;SDS011;34799;51.440;-2.534;2023-02-18T00:09:01;5.80;;;0.40;;
48987;SDS011;34799;51.440;-2.534;2023-02-18T00:11:30;2.85;;;0.55;;
48987;SDS011;34799;51.440;-2.534;2023-02-18T00:14:01;7.10;;;0.57;;
48987;SDS011;34799;51.440;-2.534;2023-02-18T00:16:30;4.43;;;0.43;;
48987;SDS011;34799;51.440;-2.534;2023-02-18T00:18:58;4.47;;;1.45;;
48987;SDS011;34799;51.440;-2.534;2023-02-18T00:21:28;4.07;;;0.20;;
48987;SDS011;34799;51.440;-2.534;2023-02-18T00:23:55;3.40;;;0.30;;
48987;SDS011;34799;51.440;-2.534;2023-02-18T00:26:23;2.97;;;0.15;;
48987;SDS011;34799;51.440;-2.534;2023-02-18T00:28:50;1.10;;;0.30;;
48987;SDS011;34799;51.440;-2.534;2023-02-18T00:31:25;5.55;;;0.30;;
48987;SDS011;34799;51.440;-2.534;2023-02-18T00:34:00;1.35;;;0.30;;
48987;SDS011;34799;51.440;-2.534;2023-02-18T00:36:28;2.47;;;0.13;;
48987;SDS011;34799;51.440;-2.534;2023-02-18T00:38:58;3.10;;;1.05;;
48987;SDS011;34799;51.440;-2.534;2023-02-18T00:41:29;2.70;;;0.30;;
48987;SDS011;34799;51.440;-2.534;2023-02-18T00:43:57;6.07;;;0.30;;
48987;SDS011;34799;51.440;-2.534;2023-02-18T00:46:25;5.70;;;0.25;;
48987;SDS011;34799;51.440;-2.534;2023-02-18T00:48:53;3.47;;;0.32;;
48987;SDS011;34799;51.440;-2.534;2023-02-18T00:51:20;4.53;;;0.40;;
48987;SDS011;34799;51.440;-2.534;2023-02-18T00:53:50;5.35;;;0.45;;
48987;SDS011;34799;51.440;-2.534;2023-02-18T00:56:17;3.50;;;0.30;;
48987;SDS011;34799;51.440;-2.534;2023-02-18T00:58:45;4.38;;;0.20;;
48987;SDS011;34799;51.440;-2.534;2023-02-18T01:01:12;7.38;;;0.50;;
48987;SDS011;34799;51.440;-2.534;2023-02-18T01:03:39;4.00;;;0.30;;
48987;SDS011;34799;51.440;-2.534;2023-02-18T01:06:08;7.28;;;0.45;;
48987;SDS011;34799;51.440;-2.534;2023-02-18T01:08:36;1.95;;;0.40;;
48987;SDS011;34799;51.440;-2.534;2023-02-18T01:11:05;3.58;;;0.28;;
48987;SDS011;34799;51.440;-2.534;2023-02-18T01:13:35;6.20;;;0.85;;
48987;SDS011;34799;51.440;-2.534;2023-02-18T01:16:05;4.85;;;0.73;;
48987;SDS011;34799;51.440;-2.534;2023-02-18T01:18:32;4.57;;;0.30;;
48987;SDS011;34799;51.440;-2.534;2023-02-18T01:20:59;4.47;;;0.47;;
48987;SDS011;34799;51.440;-2.534;2023-02-18T01:23:27;4.35;;;0.50;;
48987;SDS011;34799;51.440;-2.534;2023-02-18T01:25:56;5.15;;;0.38;;
48987;SDS011;34799;51.440;-2.534;2023-02-18T01:28:23;4.57;;;0.65;;
48987;SDS011;34799;51.440;-2.534;2023-02-18T01:30:51;7.55;;;0.60;;
48987;SDS011;34799;51.440;-2.534;2023-02-18T01:33:20;5.10;;;0.55;;
48987;SDS011;34799;51.440;-2.534;2023-02-18T01:35:48;5.47;;;0.30;;
48987;SDS011;34799;51.440;-2.534;2023-02-18T01:38:15;5.35;;;0.40;;
48987;SDS011;34799;51.440;-2.534;2023-02-18T01:40:47;3.10;;;0.22;;
48987;SDS011;34799;51.440;-2.534;2023-02-18T01:43:17;4.55;;;0.60;;
48987;SDS011;34799;51.440;-2.534;2023-02-18T01:46:05;5.93;;;0.70;;
48987;SDS011;34799;51.440;-2.534;2023-02-18T01:48:46;3.40;;;0.25;;
48987;SDS011;34799;51.440;-2.534;2023-02-18T01:51:23;5.13;;;0.40;;
48987;SDS011;34799;51.440;-2.534;2023-02-18T01:54:09;8.75;;;0.63;;
48987;SDS011;34799;51.440;-2.534;2023-02-18T01:59:38;4.30;;;0.40;;
48987;SDS011;34799;51.440;-2.534;2023-02-18T02:02:06;6.28;;;0.68;;
48987;SDS011;34799;51.440;-2.534;2023-02-18T02:04:39;7.45;;;0.43;;
48987;SDS011;34799;51.440;-2.534;2023-02-18T02:07:07;4.85;;;0.20;;
48987;SDS011;34799;51.440;-2.534;2023-02-18T02:09:35;2.42;;;0.40;;
48987;SDS011;34799;51.440;-2.534;2023-02-18T02:20:56;3.60;;;0.40;;
48987;SDS011;34799;51.440;-2.534;2023-02-18T02:24:09;4.13;;;0.20;;
48987;SDS011;34799;51.440;-2.534;2023-02-18T02:35:43;4.05;;;0.28;;
48987;SDS011;34799;51.440;-2.534;2023-02-18T02:38:30;3.05;;;0.30;;
48987;SDS011;34799;51.440;-2.534;2023-02-18T02:46:30;5.65;;;0.30;;
48987;SDS011;34799;51.440;-2.534;2023-02-18T02:52:02;5.22;;;0.30;;
48987;SDS011;34799;51.440;-2.534;2023-02-18T02:54:37;5.22;;;0.40;;
48987;SDS011;34799;51.440;-2.534;2023-02-18T02:59:55;5.55;;;0.57;;
48987;SDS011;34799;51.440;-2.534;2023-02-18T03:10:51;5.90;;;0.20;;
48987;SDS011;34799;51.440;-2.534;2023-02-18T03:19:32;2.63;;;0.10;;
48987;SDS011;34799;51.440;-2.534;2023-02-18T03:22:18;3.35;;;0.30;;
48987;SDS011;34799;51.440;-2.534;2023-02-18T03:24:53;6.95;;;0.40;;
48987;SDS011;34799;51.440;-2.534;2023-02-18T03:30:23;2.30;;;0.40;;
48987;SDS011;34799;51.440;-2.534;2023-02-18T03:32:59;5.30;;;0.35;;
48987;SDS011;34799;51.440;-2.534;2023-02-18T03:35:31;6.05;;;0.55;;
48987;SDS011;34799;51.440;-2.534;2023-02-18T03:38:01;4.22;;;0.20;;
48987;SDS011;34799;51.440;-2.534;2023-02-18T03:40:42;3.75;;;0.25;;
48987;SDS011;34799;51.440;-2.534;2023-02-18T03:43:09;7.43;;;0.20;;
48987;SDS011;34799;51.440;-2.534;2023-02-18T03:45:37;7.93;;;0.30;;
48987;SDS011;34799;51.440;-2.534;2023-02-18T03:48:04;6.55;;;0.50;;
48987;SDS011;34799;51.440;-2.534;2023-02-18T03:50:33;4.32;;;0.25;;
48987;SDS011;34799;51.440;-2.534;2023-02-18T03:53:00;4.18;;;0.40;;
48987;SDS011;34799;51.440;-2.534;2023-02-18T03:55:27;3.88;;;0.10;;
48987;SDS011;34799;51.440;-2.534;2023-02-18T03:57:54;3.63;;;0.30;;
48987;SDS011;34799;51.440;-2.534;2023-02-18T04:00:21;3.42;;;0.50;;
48987;SDS011;34799;51.440;-2.534;2023-02-18T04:02:48;5.70;;;0.22;;
48987;SDS011;34799;51.440;-2.534;2023-02-18T04:05:15;4.60;;;0.40;;
48987;SDS011;34799;51.440;-2.534;2023-02-18T04:07:43;2.60;;;0.20;;
48987;SDS011;34799;51.440;-2.534;2023-02-18T04:10:10;2.88;;;0.47;;
48987;SDS011;34799;51.440;-2.534;2023-02-18T04:12:37;3.53;;;0.63;;
48987;SDS011;34799;51.440;-2.534;2023-02-18T04:15:04;2.95;;;0.17;;
48987;SDS011;34799;51.440;-2.534;2023-02-18T04:17:32;4.38;;;0.20;;
48987;SDS011;34799;51.440;-2.534;2023-02-18T04:20:01;4.65;;;0.20;;
48987;SDS011;34799;51.440;-2.534;2023-02-18T04:22:30;5.90;;;0.40;;
48987;SDS011;34799;51.440;-2.534;2023-02-18T04:24:57;5.57;;;0.30;;
48987;SDS011;34799;51.440;-2.534;2023-02-18T04:27:25;5.13;;;0.20;;
48987;SDS011;34799;51.440;-2.534;2023-02-18T04:29:54;3.35;;;0.50;;
48987;SDS011;34799;51.440;-2.534;2023-02-18T04:32:21;3.25;;;0.32;;
48987;SDS011;34799;51.440;-2.534;2023-02-18T04:34:48;3.60;;;0.20;;
48987;SDS011;34799;51.440;-2.534;2023-02-18T04:37:15;7.97;;;0.35;;
48987;SDS011;34799;51.440;-2.534;2023-02-18T04:39:42;3.92;;;0.28;;
48987;SDS011;34799;51.440;-2.534;2023-02-18T04:42:09;6.50;;;0.30;;
48987;SDS011;34799;51.440;-2.534;2023-02-18T04:44:36;7.07;;;0.20;;
48987;SDS011;34799;51.440;-2.534;2023-02-18T04:47:05;4.18;;;0.52;;
48987;SDS011;34799;51.440;-2.534;2023-02-18T04:49:33;6.55;;;0.50;;
48987;SDS011;34799;51.440;-2.534;2023-02-18T04:52:00;6.35;;;0.40;;
48987;SDS011;34799;51.440;-2.534;2023-02-18T04:54:27;4.65;;;0.30;;
48987;SDS011;34799;51.440;-2.534;2023-02-18T04:56:54;2.97;;;0.20;;
48987;SDS011;34799;51.440;-2.534;2023-02-18T04:59:23;6.43;;;0.20;;
48987;SDS011;34799;51.440;-2.534;2023-02-18T05:01:50;9.68;;;0.30;;
48987;SDS011;34799;51.440;-2.534;2023-02-18T05:04:17;5.18;;;0.20;;
48987;SDS011;34799;51.440;-2.534;2023-02-18T05:06:44;8.55;;;0.40;;
48987;SDS011;34799;51.440;-2.534;2023-02-18T05:09:12;5.30;;;0.28;;
48987;SDS011;34799;51.440;-2.534;2023-02-18T05:11:39;6.60;;;0.45;;
48987;SDS011;34799;51.440;-2.534;2023-02-18T05:14:08;8.43;;;0.50;;
48987;SDS011;34799;51.440;-2.534;2023-02-18T05:16:35;3.20;;;0.50;;
48987;SDS011;34799;51.440;-2.534;2023-02-18T05:19:02;5.85;;;0.50;;
48987;SDS011;34799;51.440;-2.534;2023-02-18T05:21:29;5.93;;;0.40;;
48987;SDS011;34799;51.440;-2.534;2023-02-18T05:23:56;5.75;;;0.30;;
48987;SDS011;34799;51.440;-2.534;2023-02-18T05:26:25;7.80;;;0.65;;
48987;SDS011;34799;51.440;-2.534;2023-02-18T05:28:52;4.82;;;0.50;;
48987;SDS011;34799;51.440;-2.534;2023-02-18T05:31:19;7.05;;;0.95;;
48987;SDS011;34799;51.440;-2.534;2023-02-18T05:33:46;5.50;;;0.30;;
48987;SDS011;34799;51.440;-2.534;2023-02-18T05:36:13;8.93;;;0.70;;
48987;SDS011;34799;51.440;-2.534;2023-02-18T05:38:40;7.32;;;0.85;;
48987;SDS011;34799;51.440;-2.534;2023-02-18T05:41:07;3.22;;;0.35;;
48987;SDS011;34799;51.440;-2.534;2023-02-18T05:43:35;8.55;;;0.77;;
48987;SDS011;34799;51.440;-2.534;2023-02-18T05:46:23;5.28;;;0.43;;
48987;SDS011;34799;51.440;-2.534;2023-02-18T05:48:50;7.72;;;0.82;;
48987;SDS011;34799;51.440;-2.534;2023-02-18T05:51:17;7.03;;;0.43;;
48987;SDS011;34799;51.440;-2.534;2023-02-18T05:53:44;8.23;;;0.45;;
48987;SDS011;34799;51.440;-2.534;2023-02-18T05:56:12;6.22;;;0.50;;
48987;SDS011;34799;51.440;-2.534;2023-02-18T05:58:39;5.50;;;0.30;;
48987;SDS011;34799;51.440;-2.534;2023-02-18T06:01:06;6.43;;;0.45;;
48987;SDS011;34799;51.440;-2.534;2023-02-18T06:03:33;7.05;;;0.40;;
48987;SDS011;34799;51.440;-2.534;2023-02-18T06:06:00;7.97;;;0.68;;
48987;SDS011;34799;51.440;-2.534;2023-02-18T06:08:28;11.55;;;0.77;;
48987;SDS011;34799;51.440;-2.534;2023-02-18T06:10:56;8.38;;;1.00;;
48987;SDS011;34799;51.440;-2.534;2023-02-18T06:13:24;8.73;;;0.40;;
48987;SDS011;34799;51.440;-2.534;2023-02-18T06:15:51;9.57;;;1.00;;
48987;SDS011;34799;51.440;-2.534;2023-02-18T06:18:19;4.60;;;0.30;;
48987;SDS011;34799;51.440;-2.534;2023-02-18T06:20:47;6.10;;;0.30;;
48987;SDS011;34799;51.440;-2.534;2023-02-18T06:23:15;4.10;;;0.40;;
48987;SDS011;34799;51.440;-2.534;2023-02-18T06:25:42;10.00;;;0.70;;
48987;SDS011;34799;51.440;-2.534;2023-02-18T06:28:10;4.72;;;0.20;;
48987;SDS011;34799;51.440;-2.534;2023-02-18T06:30:36;6.28;;;0.50;;
48987;SDS011;34799;51.440;-2.534;2023-02-18T06:33:04;7.22;;;0.70;;
48987;SDS011;34799;51.440;-2.534;2023-02-18T06:35:31;6.88;;;0.40;;
48987;SDS011;34799;51.440;-2.534;2023-02-18T06:38:01;5.30;;;0.47;;
48987;SDS011;34799;51.440;-2.534;2023-02-18T06:40:28;7.32;;;0.45;;
48987;SDS011;34799;51.440;-2.534;2023-02-18T06:42:56;4.95;;;0.55;;
48987;SDS011;34799;51.440;-2.534;2023-02-18T06:45:23;6.80;;;0.98;;
48987;SDS011;34799;51.440;-2.534;2023-02-18T06:47:50;8.93;;;0.38;;
48987;SDS011;34799;51.440;-2.534;2023-02-18T06:50:18;6.22;;;0.40;;
48987;SDS011;34799;51.440;-2.534;2023-02-18T06:52:45;8.40;;;0.40;;
48987;SDS011;34799;51.440;-2.534;2023-02-18T06:55:12;19.98;;;1.33;;
48987;SDS011;34799;51.440;-2.534;2023-02-18T06:57:42;7.93;;;0.30;;
48987;SDS011;34799;51.440;-2.534;2023-02-18T07:00:10;5.78;;;0.30;;
48987;SDS011;34799;51.440;-2.534;2023-02-18T07:02:37;5.75;;;0.75;;
48987;SDS011;34799;51.440;-2.534;2023-02-18T07:05:05;3.92;;;0.20;;
48987;SDS011;34799;51.440;-2.534;2023-02-18T07:07:34;5.10;;;0.40;;
48987;SDS011;34799;51.440;-2.534;2023-02-18T07:10:09;4.67;;;0.50;;
48987;SDS011;34799;51.440;-2.534;2023-02-18T07:12:41;6.35;;;0.32;;
48987;SDS011;34799;51.440;-2.534;2023-02-18T07:15:11;8.38;;;0.30;;
48987;SDS011;34799;51.440;-2.534;2023-02-18T07:17:38;4.32;;;0.38;;
48987;SDS011;34799;51.440;-2.534;2023-02-18T07:20:06;3.35;;;0.50;;
48987;SDS011;34799;51.440;-2.534;2023-02-18T07:22:36;8.13;;;0.40;;
48987;SDS011;34799;51.440;-2.534;2023-02-18T07:25:05;3.20;;;0.85;;
48987;SDS011;34799;51.440;-2.534;2023-02-18T07:27:35;6.68;;;0.73;;
48987;SDS011;34799;51.440;-2.534;2023-02-18T07:30:02;9.25;;;0.50;;
48987;SDS011;34799;51.440;-2.534;2023-02-18T07:32:33;4.65;;;0.65;;
48987;SDS011;34799;51.440;-2.534;2023-02-18T07:35:01;8.32;;;0.55;;
48987;SDS011;34799;51.440;-2.534;2023-02-18T07:37:29;5.60;;;0.70;;
48987;SDS011;34799;51.440;-2.534;2023-02-18T07:39:56;3.75;;;0.28;;
48987;SDS011;34799;51.440;-2.534;2023-02-18T07:42:23;3.00;;;0.60;;
48987;SDS011;34799;51.440;-2.534;2023-02-18T07:44:50;5.00;;;0.30;;
48987;SDS011;34799;51.440;-2.534;2023-02-18T07:47:17;4.15;;;0.30;;
48987;SDS011;34799;51.440;-2.534;2023-02-18T07:49:45;4.40;;;0.47;;
48987;SDS011;34799;51.440;-2.534;2023-02-18T07:52:18;2.45;;;0.20;;
48987;SDS011;34799;51.440;-2.534;2023-02-18T07:54:48;5.57;;;0.40;;
48987;SDS011;34799;51.440;-2.534;2023-02-18T07:57:15;3.75;;;0.20;;
48987;SDS011;34799;51.440;-2.534;2023-02-18T08:00:02;6.68;;;0.28;;
48987;SDS011;34799;51.440;-2.534;2023-02-18T08:02:37;5.77;;;0.30;;
48987;SDS011;34799;51.440;-2.534;2023-02-18T08:05:08;6.60;;;0.63;;
48987;SDS011;34799;51.440;-2.534;2023-02-18T08:07:41;5.13;;;0.40;;
48987;SDS011;34799;51.440;-2.534;2023-02-18T08:10:08;4.97;;;0.40;;
48987;SDS011;34799;51.440;-2.534;2023-02-18T08:12:52;8.07;;;1.08;;
48987;SDS011;34799;51.440;-2.534;2023-02-18T08:15:19;8.70;;;1.08;;
48987;SDS011;34799;51.440;-2.534;2023-02-18T08:17:49;10.20;;;0.50;;
48987;SDS011;34799;51.440;-2.534;2023-02-18T08:20:18;10.43;;;0.60;;
48987;SDS011;34799;51.440;-2.534;2023-02-18T08:22:52;13.02;;;1.00;;
48987;SDS011;34799;51.440;-2.534;2023-02-18T08:25:22;12.65;;;2.55;;
48987;SDS011;34799;51.440;-2.534;2023-02-18T08:27:54;12.98;;;1.02;;
48987;SDS011;34799;51.440;-2.534;2023-02-18T08:30:25;13.05;;;1.73;;
48987;SDS011;34799;51.440;-2.534;2023-02-18T08:32:53;9.93;;;0.80;;
48987;SDS011;34799;51.440;-2.534;2023-02-18T08:35:20;14.18;;;0.82;;
48987;SDS011;34799;51.440;-2.534;2023-02-18T08:37:47;8.07;;;0.95;;
48987;SDS011;34799;51.440;-2.534;2023-02-18T08:40:14;15.52;;;1.30;;
48987;SDS011;34799;51.440;-2.534;2023-02-18T08:42:41;12.20;;;0.85;;
48987;SDS011;34799;51.440;-2.534;2023-02-18T08:45:10;5.10;;;0.82;;
48987;SDS011;34799;51.440;-2.534;2023-02-18T08:47:37;9.00;;;1.55;;
48987;SDS011;34799;51.440;-2.534;2023-02-18T08:50:11;11.85;;;0.88;;
48987;SDS011;34799;51.440;-2.534;2023-02-18T08:52:41;9.63;;;1.40;;
48987;SDS011;34799;51.440;-2.534;2023-02-18T08:55:08;10.70;;;1.00;;
48987;SDS011;34799;51.440;-2.534;2023-02-18T08:57:48;8.85;;;1.23;;
48987;SDS011;34799;51.440;-2.534;2023-02-18T09:00:31;15.50;;;0.90;;
48987;SDS011;34799;51.440;-2.534;2023-02-18T09:03:01;9.63;;;1.35;;
48987;SDS011;34799;51.440;-2.534;2023-02-18T09:05:31;6.28;;;0.80;;
48987;SDS011;34799;51.440;-2.534;2023-02-18T09:07:58;13.30;;;0.50;;
48987;SDS011;34799;51.440;-2.534;2023-02-18T09:10:37;8.02;;;0.88;;
48987;SDS011;34799;51.440;-2.534;2023-02-18T09:13:07;10.82;;;1.30;;
48987;SDS011;34799;51.440;-2.534;2023-02-18T09:15:59;12.60;;;0.98;;
48987;SDS011;34799;51.440;-2.534;2023-02-18T09:18:36;10.15;;;0.60;;
48987;SDS011;34799;51.440;-2.534;2023-02-18T09:21:04;9.82;;;0.95;;
48987;SDS011;34799;51.440;-2.534;2023-02-18T09:23:33;8.20;;;0.75;;
48987;SDS011;34799;51.440;-2.534;2023-02-18T09:26:06;12.70;;;1.10;;
48987;SDS011;34799;51.440;-2.534;2023-02-18T09:28:35;11.68;;;1.02;;
48987;SDS011;34799;51.440;-2.534;2023-02-18T09:31:07;7.10;;;1.02;;
48987;SDS011;34799;51.440;-2.534;2023-02-18T09:33:40;9.30;;;0.95;;
48987;SDS011;34799;51.440;-2.534;2023-02-18T09:36:11;12.15;;;0.98;;
48987;SDS011;34799;51.440;-2.534;2023-02-18T09:38:44;12.20;;;1.52;;
48987;SDS011;34799;51.440;-2.534;2023-02-18T09:41:28;12.65;;;1.58;;
48987;SDS011;34799;51.440;-2.534;2023-02-18T09:44:24;11.27;;;1.10;;
48987;SDS011;34799;51.440;-2.534;2023-02-18T09:47:12;16.25;;;1.60;;
48987;SDS011;34799;51.440;-2.534;2023-02-18T09:53:00;15.85;;;1.80;;
48987;SDS011;34799;51.440;-2.534;2023-02-18T09:55:32;16.00;;;1.75;;
48987;SDS011;34799;51.440;-2.534;2023-02-18T10:01:06;18.23;;;1.80;;
48987;SDS011;34799;51.440;-2.534;2023-02-18T10:03:47;13.55;;;1.83;;
48987;SDS011;34799;51.440;-2.534;2023-02-18T10:06:35;12.60;;;2.13;;
48987;SDS011;34799;51.440;-2.534;2023-02-18T10:09:20;11.32;;;1.23;;
48987;SDS011;34799;51.440;-2.534;2023-02-18T10:11:51;10.93;;;2.33;;
48987;SDS011;34799;51.440;-2.534;2023-02-18T10:14:22;22.77;;;2.78;;
48987;SDS011;34799;51.440;-2.534;2023-02-18T10:16:51;17.48;;;1.45;;
48987;SDS011;34799;51.440;-2.534;2023-02-18T10:19:29;23.65;;;2.00;;
48987;SDS011;34799;51.440;-2.534;2023-02-18T10:22:04;16.33;;;1.35;;
48987;SDS011;34799;51.440;-2.534;2023-02-18T10:24:34;12.00;;;2.15;;
48987;SDS011;34799;51.440;-2.534;2023-02-18T10:27:34;22.25;;;2.00;;
48987;SDS011;34799;51.440;-2.534;2023-02-18T10:32:59;22.27;;;2.08;;
48987;SDS011;34799;51.440;-2.534;2023-02-18T10:35:43;11.05;;;1.20;;
48987;SDS011;34799;51.440;-2.534;2023-02-18T10:38:23;12.90;;;1.63;;
48987;SDS011;34799;51.440;-2.534;2023-02-18T10:41:02;19.67;;;2.05;;
48987;SDS011;34799;51.440;-2.534;2023-02-18T10:52:12;15.68;;;2.05;;
48987;SDS011;34799;51.440;-2.534;2023-02-18T10:54:48;19.08;;;2.67;;
48987;SDS011;34799;51.440;-2.534;2023-02-18T10:57:22;15.65;;;1.40;;
48987;SDS011;34799;51.440;-2.534;2023-02-18T10:59:54;19.88;;;1.98;;
48987;SDS011;34799;51.440;-2.534;2023-02-18T11:02:24;13.75;;;1.38;;
48987;SDS011;34799;51.440;-2.534;2023-02-18T11:04:57;18.30;;;2.40;;
48987;SDS011;34799;51.440;-2.534;2023-02-18T11:07:33;10.93;;;1.98;;
48987;SDS011;34799;51.440;-2.534;2023-02-18T11:10:14;11.93;;;1.75;;
48987;SDS011;34799;51.440;-2.534;2023-02-18T11:17:41;11.05;;;2.03;;
48987;SDS011;34799;51.440;-2.534;2023-02-18T11:20:21;9.13;;;1.10;;
48987;SDS011;34799;51.440;-2.534;2023-02-18T11:23:19;10.65;;;1.02;;
48987;SDS011;34799;51.440;-2.534;2023-02-18T11:26:06;12.10;;;1.67;;
48987;SDS011;34799;51.440;-2.534;2023-02-18T11:28:40;14.43;;;1.25;;
48987;SDS011;34799;51.440;-2.534;2023-02-18T11:31:15;15.80;;;1.60;;
48987;SDS011;34799;51.440;-2.534;2023-02-18T11:33:50;13.57;;;2.13;;
48987;SDS011;34799;51.440;-2.534;2023-02-18T11:38:55;17.67;;;2.53;;
48987;SDS011;34799;51.440;-2.534;2023-02-18T11:41:38;17.27;;;1.90;;
48987;SDS011;34799;51.440;-2.534;2023-02-18T11:44:17;14.23;;;1.50;;
48987;SDS011;34799;51.440;-2.534;2023-02-18T11:49:29;13.82;;;1.58;;
48987;SDS011;34799;51.440;-2.534;2023-02-18T11:52:33;9.02;;;1.00;;
48987;SDS011;34799;51.440;-2.534;2023-02-18T11:55:02;11.00;;;2.35;;
48987;SDS011;34799;51.440;-2.534;2023-02-18T11:57:30;12.05;;;1.48;;
48987;SDS011;34799;51.440;-2.534;2023-02-18T12:02:55;9.93;;;1.00;;
48987;SDS011;34799;51.440;-2.534;2023-02-18T12:05:26;6.78;;;0.75;;
48987;SDS011;34799;51.440;-2.534;2023-02-18T12:08:06;11.93;;;1.08;;
48987;SDS011;34799;51.440;-2.534;2023-02-18T12:13:22;9.68;;;1.10;;
48987;SDS011;34799;51.440;-2.534;2023-02-18T12:27:15;12.88;;;1.75;;
48987;SDS011;34799;51.440;-2.534;2023-02-18T12:36:11;9.32;;;1.50;;
48987;SDS011;34799;51.440;-2.534;2023-02-18T12:50:14;9.43;;;1.48;;
48987;SDS011;34799;51.440;-2.534;2023-02-18T12:53:15;8.77;;;0.65;;
48987;SDS011;34799;51.440;-2.534;2023-02-18T12:56:00;7.30;;;0.93;;
48987;SDS011;34799;51.440;-2.534;2023-02-18T13:02:17;7.47;;;0.90;;
48987;SDS011;34799;51.440;-2.534;2023-02-18T13:04:36;7.15;;;1.10;;
48987;SDS011;34799;51.440;-2.534;2023-02-18T13:07:26;5.13;;;0.82;;
48987;SDS011;34799;51.440;-2.534;2023-02-18T13:13:30;9.48;;;0.98;;
48987;SDS011;34799;51.440;-2.534;2023-02-18T13:16:04;5.93;;;0.75;;
48987;SDS011;34799;51.440;-2.534;2023-02-18T13:19:02;5.93;;;0.60;;
48987;SDS011;34799;51.440;-2.534;2023-02-18T13:21:33;7.95;;;0.88;;
48987;SDS011;34799;51.440;-2.534;2023-02-18T13:24:05;5.13;;;0.98;;
48987;SDS011;34799;51.440;-2.534;2023-02-18T13:26:36;6.80;;;0.70;;
48987;SDS011;34799;51.440;-2.534;2023-02-18T13:40:00;4.10;;;0.60;;
48987;SDS011;34799;51.440;-2.534;2023-02-18T13:42:36;9.20;;;1.57;;
48987;SDS011;34799;51.440;-2.534;2023-02-18T13:45:04;5.63;;;1.35;;
48987;SDS011;34799;51.440;-2.534;2023-02-18T13:47:51;9.40;;;0.75;;
48987;SDS011;34799;51.440;-2.534;2023-02-18T13:52:48;3.50;;;0.55;;
48987;SDS011;34799;51.440;-2.534;2023-02-18T13:55:19;9.50;;;1.17;;
48987;SDS011;34799;51.440;-2.534;2023-02-18T13:57:53;4.13;;;0.30;;
48987;SDS011;34799;51.440;-2.534;2023-02-18T14:00:22;4.13;;;0.40;;
48987;SDS011;34799;51.440;-2.534;2023-02-18T14:02:56;4.35;;;0.43;;
48987;SDS011;34799;51.440;-2.534;2023-02-18T14:05:37;4.07;;;0.82;;
48987;SDS011;34799;51.440;-2.534;2023-02-18T14:08:14;6.68;;;0.43;;
48987;SDS011;34799;51.440;-2.534;2023-02-18T14:13:39;4.95;;;0.85;;
48987;SDS011;34799;51.440;-2.534;2023-02-18T14:23:40;10.00;;;1.30;;
48987;SDS011;34799;51.440;-2.534;2023-02-18T14:26:34;11.07;;;0.85;;
48987;SDS011;34799;51.440;-2.534;2023-02-18T14:29:13;7.88;;;0.82;;
48987;SDS011;34799;51.440;-2.534;2023-02-18T14:45:57;10.05;;;1.33;;
48987;SDS011;34799;51.440;-2.534;2023-02-18T14:51:18;12.95;;;1.15;;
48987;SDS011;34799;51.440;-2.534;2023-02-18T14:54:17;15.77;;;2.45;;
48987;SDS011;34799;51.440;-2.534;2023-02-18T14:56:51;12.10;;;0.70;;
48987;SDS011;34799;51.440;-2.534;2023-02-18T14:59:23;11.48;;;1.52;;
48987;SDS011;34799;51.440;-2.534;2023-02-18T15:01:54;4.72;;;0.50;;
48987;SDS011;34799;51.440;-2.534;2023-02-18T15:04:23;5.03;;;0.30;;
48987;SDS011;34799;51.440;-2.534;2023-02-18T15:06:59;9.52;;;1.67;;
48987;SDS011;34799;51.440;-2.534;2023-02-18T15:09:28;5.82;;;1.02;;
48987;SDS011;34799;51.440;-2.534;2023-02-18T15:12:00;6.32;;;0.60;;
48987;SDS011;34799;51.440;-2.534;2023-02-18T15:14:32;6.93;;;1.70;;
48987;SDS011;34799;51.440;-2.534;2023-02-18T15:17:03;10.32;;;2.63;;
48987;SDS011;34799;51.440;-2.534;2023-02-18T15:19:39;6.28;;;0.70;;
48987;SDS011;34799;51.440;-2.534;2023-02-18T15:22:16;12.27;;;1.33;;
48987;SDS011;34799;51.440;-2.534;2023-02-18T15:24:49;11.10;;;1.25;;
48987;SDS011;34799;51.440;-2.534;2023-02-18T15:27:20;6.45;;;0.80;;
48987;SDS011;34799;51.440;-2.534;2023-02-18T15:30:40;11.23;;;1.00;;
48987;SDS011;34799;51.440;-2.534;2023-02-18T15:33:13;12.23;;;1.95;;
48987;SDS011;34799;51.440;-2.534;2023-02-18T15:35:45;15.77;;;0.98;;
48987;SDS011;34799;51.440;-2.534;2023-02-18T15:38:14;11.35;;;2.30;;
48987;SDS011;34799;51.440;-2.534;2023-02-18T15:40:52;10.57;;;1.42;;
48987;SDS011;34799;51.440;-2.534;2023-02-18T15:44:01;11.65;;;1.30;;
48987;SDS011;34799;51.440;-2.534;2023-02-18T15:46:33;13.80;;;2.25;;
48987;SDS011;34799;51.440;-2.534;2023-02-18T15:49:00;14.43;;;1.13;;
48987;SDS011;34799;51.440;-2.534;2023-02-18T15:51:33;14.13;;;1.48;;
48987;SDS011;34799;51.440;-2.534;2023-02-18T15:54:01;12.88;;;1.13;;
48987;SDS011;34799;51.440;-2.534;2023-02-18T15:56:30;15.65;;;1.58;;
48987;SDS011;34799;51.440;-2.534;2023-02-18T15:59:08;14.63;;;1.95;;
48987;SDS011;34799;51.440;-2.534;2023-02-18T16:01:49;10.02;;;1.05;;
48987;SDS011;34799;51.440;-2.534;2023-02-18T16:04:57;10.10;;;1.20;;
48987;SDS011;34799;51.440;-2.534;2023-02-18T16:10:16;16.98;;;1.48;;
48987;SDS011;34799;51.440;-2.534;2023-02-18T16:12:51;12.38;;;1.73;;
48987;SDS011;34799;51.440;-2.534;2023-02-18T16:15:37;10.95;;;2.72;;
48987;SDS011;34799;51.440;-2.534;2023-02-18T16:18:06;11.65;;;1.45;;
48987;SDS011;34799;51.440;-2.534;2023-02-18T16:20:51;13.32;;;2.03;;
48987;SDS011;34799;51.440;-2.534;2023-02-18T16:23:33;16.08;;;2.20;;
48987;SDS011;34799;51.440;-2.534;2023-02-18T16:26:19;9.02;;;1.20;;
48987;SDS011;34799;51.440;-2.534;2023-02-18T16:29:12;15.40;;;1.33;;
48987;SDS011;34799;51.440;-2.534;2023-02-18T16:31:52;12.50;;;1.20;;
48987;SDS011;34799;51.440;-2.534;2023-02-18T16:34:26;15.35;;;1.42;;
48987;SDS011;34799;51.440;-2.534;2023-02-18T16:36:55;15.77;;;1.52;;
48987;SDS011;34799;51.440;-2.534;2023-02-18T16:39:42;15.60;;;0.90;;
48987;SDS011;34799;51.440;-2.534;2023-02-18T16:42:10;11.93;;;1.83;;
48987;SDS011;34799;51.440;-2.534;2023-02-18T16:44:38;13.40;;;1.17;;
48987;SDS011;34799;51.440;-2.534;2023-02-18T16:47:06;13.80;;;1.80;;
48987;SDS011;34799;51.440;-2.534;2023-02-18T16:49:33;18.63;;;1.33;;
48987;SDS011;34799;51.440;-2.534;2023-02-18T16:52:05;17.33;;;2.80;;
48987;SDS011;34799;51.440;-2.534;2023-02-18T16:54:33;14.02;;;1.77;;
48987;SDS011;34799;51.440;-2.534;2023-02-18T16:57:02;15.02;;;2.47;;
48987;SDS011;34799;51.440;-2.534;2023-02-18T16:59:29;16.77;;;2.00;;
48987;SDS011;34799;51.440;-2.534;2023-02-18T17:01:57;15.38;;;1.60;;
48987;SDS011;34799;51.440;-2.534;2023-02-18T17:04:24;20.17;;;1.88;;
48987;SDS011;34799;51.440;-2.534;2023-02-18T17:06:51;22.52;;;2.30;;
48987;SDS011;34799;51.440;-2.534;2023-02-18T17:09:19;24.50;;;2.67;;
48987;SDS011;34799;51.440;-2.534;2023-02-18T17:11:49;19.08;;;1.45;;
48987;SDS011;34799;51.440;-2.534;2023-02-18T17:14:18;21.55;;;2.42;;
48987;SDS011;34799;51.440;-2.534;2023-02-18T17:16:48;13.00;;;1.95;;
48987;SDS011;34799;51.440;-2.534;2023-02-18T17:19:17;21.45;;;1.55;;
48987;SDS011;34799;51.440;-2.534;2023-02-18T17:21:44;20.00;;;2.45;;
48987;SDS011;34799;51.440;-2.534;2023-02-18T17:24:15;19.58;;;3.03;;
48987;SDS011;34799;51.440;-2.534;2023-02-18T17:26:44;21.40;;;2.72;;
48987;SDS011;34799;51.440;-2.534;2023-02-18T17:29:10;27.35;;;2.45;;
48987;SDS011;34799;51.440;-2.534;2023-02-18T17:31:43;14.35;;;1.75;;
48987;SDS011;34799;51.440;-2.534;2023-02-18T17:34:46;23.35;;;1.67;;
48987;SDS011;34799;51.440;-2.534;2023-02-18T17:37:09;23.80;;;2.63;;
48987;SDS011;34799;51.440;-2.534;2023-02-18T17:39:39;22.73;;;3.35;;
48987;SDS011;34799;51.440;-2.534;2023-02-18T17:42:08;25.67;;;3.70;;
48987;SDS011;34799;51.440;-2.534;2023-02-18T17:44:36;30.35;;;3.72;;